sensor_id;sensor_type;location;lat;lon;timestamp;pressure;altitude;pressure_sealevel;temperature;humidity
46642;BME280;32370;41.864;-88.124;2023-02-20T00:00:56;98223.02;;;5.34;69.33
46642;BME280;32370;41.864;-88.124;2023-02-20T00:03:23;98226.18;;;5.18;69.94
46642;BME280;32370;41.864;-88.124;2023-02-20T00:05:51;98230.23;;;5.15;71.19
46642;BME280;32370;41.864;-88.124;2023-02-20T00:08:19;98232.22;;;5.09;71.17
46642;BME280;32370;41.864;-88.124;2023-02-20T00:10:47;98238.48;;;4.94;71.85
46642;BME280;32370;41.864;-88.124;2023-02-20T00:13:15;98237.34;;;4.78;72.51
46642;BME280;32370;41.864;-88.124;2023-02-20T00:15:43;98238.83;;;5.05;73.66
46642;BME280;32370;41.864;-88.124;2023-02-20T00:18:11;98244.78;;;5.09;73.45
46642;BME280;32370;41.864;-88.124;2023-02-20T00:20:39;98250.87;;;4.77;74.46
46642;BME280;32370;41.864;-88.124;2023-02-20T00:23:07;98252.31;;;4.78;74.50
46642;BME280;32370;41.864;-88.124;2023-02-20T00:25:35;98256.73;;;4.58;74.48
46642;BME280;32370;41.864;-88.124;2023-02-20T00:28:03;98254.42;;;4.61;75.37
46642;BME280;32370;41.864;-88.124;2023-02-20T00:30:32;98260.63;;;4.58;75.23
46642;BME280;32370;41.864;-88.124;2023-02-20T00:33:00;98261.19;;;4.37;76.29
46642;BME280;32370;41.864;-88.124;2023-02-20T00:35:28;98261.33;;;4.57;76.32
46642;BME280;32370;41.864;-88.124;2023-02-20T00:37:56;98258.94;;;4.16;76.93
46642;BME280;32370;41.864;-88.124;2023-02-20T00:40:25;98255.10;;;4.28;77.10
46642;BME280;32370;41.864;-88.124;2023-02-20T00:42:53;98254.96;;;4.04;76.76
46642;BME280;32370;41.864;-88.124;2023-02-20T00:45:21;98262.41;;;3.89;77.61
46642;BME280;32370;41.864;-88.124;2023-02-20T00:47:50;98269.40;;;4.00;77.82
46642;BME280;32370;41.864;-88.124;2023-02-20T00:50:18;98272.22;;;3.94;78.08
46642;BME280;32370;41.864;-88.124;2023-02-20T00:52:46;98273.64;;;4.14;78.02
46642;BME280;32370;41.864;-88.124;2023-02-20T00:55:14;98268.96;;;4.22;77.73
46642;BME280;32370;41.864;-88.124;2023-02-20T00:57:42;98270.97;;;3.84;77.68
46642;BME280;32370;41.864;-88.124;2023-02-20T01:00:20;98271.20;;;4.09;77.53
46642;BME280;32370;41.864;-88.124;2023-02-20T01:02:48;98267.42;;;3.71;77.67
46642;BME280;32370;41.864;-88.124;2023-02-20T01:05:16;98269.41;;;3.66;78.16
46642;BME280;32370;41.864;-88.124;2023-02-20T01:07:44;98274.31;;;3.72;78.84
46642;BME280;32370;41.864;-88.124;2023-02-20T01:10:13;98278.73;;;4.01;77.51
46642;BME280;32370;41.864;-88.124;2023-02-20T01:12:40;98274.75;;;3.83;77.98
46642;BME280;32370;41.864;-88.124;2023-02-20T01:15:11;98279.00;;;3.72;78.44
46642;BME280;32370;41.864;-88.124;2023-02-20T01:17:39;98277.25;;;3.66;77.64
46642;BME280;32370;41.864;-88.124;2023-02-20T01:20:08;98281.05;;;3.52;77.85
46642;BME280;32370;41.864;-88.124;2023-02-20T01:22:36;98280.82;;;3.59;77.67
46642;BME280;32370;41.864;-88.124;2023-02-20T01:25:05;98285.82;;;3.38;78.64
46642;BME280;32370;41.864;-88.124;2023-02-20T01:27:33;98283.95;;;3.11;79.38
46642;BME280;32370;41.864;-88.124;2023-02-20T01:30:01;98290.66;;;2.96;80.06
46642;BME280;32370;41.864;-88.124;2023-02-20T01:32:30;98296.00;;;3.24;80.77
46642;BME280;32370;41.864;-88.124;2023-02-20T01:34:58;98298.86;;;2.87;81.13
46642;BME280;32370;41.864;-88.124;2023-02-20T01:37:25;98302.61;;;2.76;81.49
46642;BME280;32370;41.864;-88.124;2023-02-20T01:39:53;98303.31;;;2.84;81.18
46642;BME280;32370;41.864;-88.124;2023-02-20T01:42:23;98305.04;;;2.90;81.97
46642;BME280;32370;41.864;-88.124;2023-02-20T01:44:51;98306.41;;;3.44;81.81
46642;BME280;32370;41.864;-88.124;2023-02-20T01:47:21;98308.53;;;3.56;82.18
46642;BME280;32370;41.864;-88.124;2023-02-20T01:49:53;98315.66;;;3.54;82.26
46642;BME280;32370;41.864;-88.124;2023-02-20T01:52:25;98309.52;;;3.36;82.89
46642;BME280;32370;41.864;-88.124;2023-02-20T01:54:56;98309.24;;;3.15;82.71
46642;BME280;32370;41.864;-88.124;2023-02-20T01:57:29;98308.12;;;2.74;83.20
46642;BME280;32370;41.864;-88.124;2023-02-20T02:00:03;98313.55;;;3.13;83.53
46642;BME280;32370;41.864;-88.124;2023-02-20T02:02:35;98310.28;;;2.54;83.89
46642;BME280;32370;41.864;-88.124;2023-02-20T02:05:05;98318.22;;;2.41;84.26
46642;BME280;32370;41.864;-88.124;2023-02-20T02:07:34;98321.81;;;2.36;84.34
46642;BME280;32370;41.864;-88.124;2023-02-20T02:10:05;98326.48;;;2.61;84.15
46642;BME280;32370;41.864;-88.124;2023-02-20T02:12:34;98329.02;;;2.50;84.00
46642;BME280;32370;41.864;-88.124;2023-02-20T02:15:11;98331.86;;;2.75;84.23
46642;BME280;32370;41.864;-88.124;2023-02-20T02:17:53;98331.02;;;2.49;83.92
46642;BME280;32370;41.864;-88.124;2023-02-20T02:20:45;98336.31;;;2.69;83.76
46642;BME280;32370;41.864;-88.124;2023-02-20T02:24:03;98333.19;;;2.34;84.23
46642;BME280;32370;41.864;-88.124;2023-02-20T02:27:49;98328.17;;;2.84;84.70
46642;BME280;32370;41.864;-88.124;2023-02-20T02:32:42;98330.45;;;2.42;84.87
46642;BME280;32370;41.864;-88.124;2023-02-20T02:36:20;98335.63;;;2.77;85.15
46642;BME280;32370;41.864;-88.124;2023-02-20T02:38:58;98334.26;;;1.98;85.02
46642;BME280;32370;41.864;-88.124;2023-02-20T02:41:34;98337.58;;;2.10;85.61
46642;BME280;32370;41.864;-88.124;2023-02-20T02:44:12;98336.53;;;2.03;85.41
46642;BME280;32370;41.864;-88.124;2023-02-20T02:46:46;98335.77;;;2.05;85.12
46642;BME280;32370;41.864;-88.124;2023-02-20T02:49:22;98329.84;;;1.90;86.22
46642;BME280;32370;41.864;-88.124;2023-02-20T02:51:53;98333.86;;;1.74;85.59
46642;BME280;32370;41.864;-88.124;2023-02-20T02:54:24;98335.40;;;2.02;85.85
46642;BME280;32370;41.864;-88.124;2023-02-20T02:56:54;98331.71;;;1.72;85.85
46642;BME280;32370;41.864;-88.124;2023-02-20T02:59:42;98331.69;;;2.01;85.24
46642;BME280;32370;41.864;-88.124;2023-02-20T03:02:13;98333.17;;;1.99;85.00
46642;BME280;32370;41.864;-88.124;2023-02-20T03:04:46;98329.55;;;1.53;85.43
46642;BME280;32370;41.864;-88.124;2023-02-20T03:07:17;98327.72;;;1.58;86.43
46642;BME280;32370;41.864;-88.124;2023-02-20T03:09:49;98322.83;;;1.77;86.74
46642;BME280;32370;41.864;-88.124;2023-02-20T03:12:21;98318.26;;;1.90;86.72
46642;BME280;32370;41.864;-88.124;2023-02-20T03:14:58;98316.93;;;1.42;86.37
46642;BME280;32370;41.864;-88.124;2023-02-20T03:17:30;98318.79;;;1.47;86.17
46642;BME280;32370;41.864;-88.124;2023-02-20T03:20:02;98317.54;;;1.82;86.80
46642;BME280;32370;41.864;-88.124;2023-02-20T03:22:35;98316.64;;;1.55;87.19
46642;BME280;32370;41.864;-88.124;2023-02-20T03:25:08;98317.06;;;1.73;86.55
46642;BME280;32370;41.864;-88.124;2023-02-20T03:27:41;98318.11;;;1.57;86.12
46642;BME280;32370;41.864;-88.124;2023-02-20T03:30:13;98317.05;;;1.75;86.23
46642;BME280;32370;41.864;-88.124;2023-02-20T03:32:45;98317.03;;;1.60;85.91
46642;BME280;32370;41.864;-88.124;2023-02-20T03:35:15;98313.57;;;1.75;86.08
46642;BME280;32370;41.864;-88.124;2023-02-20T03:37:47;98309.28;;;1.71;85.94
46642;BME280;32370;41.864;-88.124;2023-02-20T03:40:16;98311.19;;;1.65;86.32
46642;BME280;32370;41.864;-88.124;2023-02-20T03:42:47;98306.14;;;1.62;86.33
46642;BME280;32370;41.864;-88.124;2023-02-20T03:45:18;98311.04;;;1.76;86.28
46642;BME280;32370;41.864;-88.124;2023-02-20T03:47:51;98308.29;;;1.75;86.33
46642;BME280;32370;41.864;-88.124;2023-02-20T03:50:19;98303.79;;;1.91;86.66
46642;BME280;32370;41.864;-88.124;2023-02-20T03:52:54;98304.62;;;1.87;87.19
46642;BME280;32370;41.864;-88.124;2023-02-20T03:55:58;98303.32;;;2.24;86.50
46642;BME280;32370;41.864;-88.124;2023-02-20T03:58:32;98295.26;;;1.76;86.79
46642;BME280;32370;41.864;-88.124;2023-02-20T04:01:03;98285.04;;;1.95;86.57
46642;BME280;32370;41.864;-88.124;2023-02-20T04:03:37;98287.08;;;2.08;85.93
46642;BME280;32370;41.864;-88.124;2023-02-20T04:06:09;98280.82;;;2.03;85.21
46642;BME280;32370;41.864;-88.124;2023-02-20T04:08:41;98279.17;;;2.00;85.00
46642;BME280;32370;41.864;-88.124;2023-02-20T04:11:15;98285.73;;;1.81;84.89
46642;BME280;32370;41.864;-88.124;2023-02-20T04:13:48;98290.99;;;1.74;86.27
46642;BME280;32370;41.864;-88.124;2023-02-20T04:16:18;98292.05;;;2.05;86.07
46642;BME280;32370;41.864;-88.124;2023-02-20T04:18:48;98293.06;;;1.71;86.03
46642;BME280;32370;41.864;-88.124;2023-02-20T04:21:20;98292.71;;;1.91;86.74
46642;BME280;32370;41.864;-88.124;2023-02-20T04:23:58;98296.81;;;1.89;86.73
46642;BME280;32370;41.864;-88.124;2023-02-20T04:26:29;98310.33;;;1.63;86.96
46642;BME280;32370;41.864;-88.124;2023-02-20T04:28:57;98317.47;;;1.92;87.62
46642;BME280;32370;41.864;-88.124;2023-02-20T04:31:25;98312.73;;;2.02;88.03
46642;BME280;32370;41.864;-88.124;2023-02-20T04:33:53;98318.43;;;2.02;88.35
46642;BME280;32370;41.864;-88.124;2023-02-20T04:36:22;98311.91;;;1.90;88.79
46642;BME280;32370;41.864;-88.124;2023-02-20T04:38:50;98309.49;;;2.02;88.68
46642;BME280;32370;41.864;-88.124;2023-02-20T04:41:19;98309.76;;;1.89;89.03
46642;BME280;32370;41.864;-88.124;2023-02-20T04:43:47;98308.89;;;1.76;89.65
46642;BME280;32370;41.864;-88.124;2023-02-20T04:46:15;98313.00;;;1.85;89.12
46642;BME280;32370;41.864;-88.124;2023-02-20T04:48:43;98315.75;;;1.68;89.60
46642;BME280;32370;41.864;-88.124;2023-02-20T04:51:11;98308.01;;;1.64;89.66
46642;BME280;32370;41.864;-88.124;2023-02-20T04:53:39;98299.39;;;1.66;89.45
46642;BME280;32370;41.864;-88.124;2023-02-20T04:56:07;98298.66;;;1.57;89.78
46642;BME280;32370;41.864;-88.124;2023-02-20T04:58:35;98303.54;;;1.46;90.26
46642;BME280;32370;41.864;-88.124;2023-02-20T05:01:03;98303.18;;;1.38;90.53
46642;BME280;32370;41.864;-88.124;2023-02-20T05:03:31;98299.25;;;1.41;90.16
46642;BME280;32370;41.864;-88.124;2023-02-20T05:05:59;98294.71;;;1.47;90.02
46642;BME280;32370;41.864;-88.124;2023-02-20T05:08:31;98290.80;;;1.18;89.72
46642;BME280;32370;41.864;-88.124;2023-02-20T05:10:59;98296.55;;;1.24;90.58
46642;BME280;32370;41.864;-88.124;2023-02-20T05:13:27;98298.40;;;1.41;90.70
46642;BME280;32370;41.864;-88.124;2023-02-20T05:15:55;98300.42;;;0.98;90.89
46642;BME280;32370;41.864;-88.124;2023-02-20T05:18:25;98292.19;;;1.00;90.94
46642;BME280;32370;41.864;-88.124;2023-02-20T05:20:53;98291.54;;;1.02;90.64
46642;BME280;32370;41.864;-88.124;2023-02-20T05:23:21;98295.98;;;0.86;91.27
46642;BME280;32370;41.864;-88.124;2023-02-20T05:25:48;98309.18;;;0.97;91.59
46642;BME280;32370;41.864;-88.124;2023-02-20T05:28:16;98310.05;;;0.63;92.26
46642;BME280;32370;41.864;-88.124;2023-02-20T05:30:44;98307.59;;;0.77;92.73
46642;BME280;32370;41.864;-88.124;2023-02-20T05:33:12;98313.08;;;0.75;92.81
46642;BME280;32370;41.864;-88.124;2023-02-20T05:35:40;98315.88;;;0.86;93.57
46642;BME280;32370;41.864;-88.124;2023-02-20T05:38:08;98312.10;;;1.04;93.09
46642;BME280;32370;41.864;-88.124;2023-02-20T05:40:36;98322.32;;;0.49;92.70
46642;BME280;32370;41.864;-88.124;2023-02-20T05:43:04;98324.48;;;0.92;92.99
46642;BME280;32370;41.864;-88.124;2023-02-20T05:45:32;98318.19;;;0.72;92.99
46642;BME280;32370;41.864;-88.124;2023-02-20T05:48:00;98323.72;;;0.52;92.96
46642;BME280;32370;41.864;-88.124;2023-02-20T05:50:28;98320.32;;;0.67;92.10
46642;BME280;32370;41.864;-88.124;2023-02-20T05:52:56;98317.21;;;0.55;92.15
46642;BME280;32370;41.864;-88.124;2023-02-20T05:55:24;98319.54;;;0.07;93.20
46642;BME280;32370;41.864;-88.124;2023-02-20T05:57:52;98323.94;;;0.34;93.06
46642;BME280;32370;41.864;-88.124;2023-02-20T06:00:20;98322.77;;;0.16;93.71
46642;BME280;32370;41.864;-88.124;2023-02-20T06:02:49;98325.19;;;0.06;94.08
46642;BME280;32370;41.864;-88.124;2023-02-20T06:05:17;98326.42;;;0.03;94.08
46642;BME280;32370;41.864;-88.124;2023-02-20T06:07:45;98331.95;;;-0.14;94.55
46642;BME280;32370;41.864;-88.124;2023-02-20T06:10:17;98330.61;;;0.33;93.56
46642;BME280;32370;41.864;-88.124;2023-02-20T06:12:50;98319.93;;;0.77;91.49
46642;BME280;32370;41.864;-88.124;2023-02-20T06:15:19;98315.07;;;0.17;91.37
46642;BME280;32370;41.864;-88.124;2023-02-20T06:17:47;98314.22;;;0.18;92.37
46642;BME280;32370;41.864;-88.124;2023-02-20T06:20:15;98316.96;;;-0.03;93.03
46642;BME280;32370;41.864;-88.124;2023-02-20T06:22:43;98315.46;;;-0.09;93.14
46642;BME280;32370;41.864;-88.124;2023-02-20T06:25:10;98315.19;;;-0.06;93.53
46642;BME280;32370;41.864;-88.124;2023-02-20T06:27:38;98316.53;;;-0.00;93.44
46642;BME280;32370;41.864;-88.124;2023-02-20T06:30:09;98318.25;;;-0.03;93.54
46642;BME280;32370;41.864;-88.124;2023-02-20T06:32:37;98320.18;;;0.12;93.90
46642;BME280;32370;41.864;-88.124;2023-02-20T06:35:06;98316.58;;;-0.22;93.35
46642;BME280;32370;41.864;-88.124;2023-02-20T06:37:34;98314.33;;;0.06;93.63
46642;BME280;32370;41.864;-88.124;2023-02-20T06:40:03;98313.63;;;0.41;93.15
46642;BME280;32370;41.864;-88.124;2023-02-20T06:42:32;98319.22;;;0.03;93.51
46642;BME280;32370;41.864;-88.124;2023-02-20T06:44:59;98323.14;;;-0.01;92.90
46642;BME280;32370;41.864;-88.124;2023-02-20T06:47:27;98325.88;;;0.31;91.71
46642;BME280;32370;41.864;-88.124;2023-02-20T06:49:55;98326.31;;;-0.21;93.65
46642;BME280;32370;41.864;-88.124;2023-02-20T06:52:23;98322.52;;;-0.49;94.34
46642;BME280;32370;41.864;-88.124;2023-02-20T06:54:51;98324.22;;;0.00;93.36
46642;BME280;32370;41.864;-88.124;2023-02-20T06:57:20;98326.48;;;0.02;93.43
46642;BME280;32370;41.864;-88.124;2023-02-20T06:59:48;98325.88;;;0.17;93.90
46642;BME280;32370;41.864;-88.124;2023-02-20T07:02:17;98329.65;;;0.09;93.00
46642;BME280;32370;41.864;-88.124;2023-02-20T07:04:49;98330.13;;;0.24;92.22
46642;BME280;32370;41.864;-88.124;2023-02-20T07:07:17;98328.84;;;0.18;91.83
46642;BME280;32370;41.864;-88.124;2023-02-20T07:09:44;98326.69;;;0.22;91.41
46642;BME280;32370;41.864;-88.124;2023-02-20T07:12:13;98334.85;;;0.55;90.23
46642;BME280;32370;41.864;-88.124;2023-02-20T07:14:41;98333.03;;;-0.06;90.90
46642;BME280;32370;41.864;-88.124;2023-02-20T07:17:10;98331.29;;;-0.35;90.15
46642;BME280;32370;41.864;-88.124;2023-02-20T07:19:38;98335.30;;;-0.01;89.05
46642;BME280;32370;41.864;-88.124;2023-02-20T07:22:06;98343.31;;;-0.31;88.21
46642;BME280;32370;41.864;-88.124;2023-02-20T07:24:34;98352.95;;;-0.19;86.73
46642;BME280;32370;41.864;-88.124;2023-02-20T07:27:02;98358.69;;;-0.15;86.42
46642;BME280;32370;41.864;-88.124;2023-02-20T07:29:30;98364.18;;;-0.16;85.29
46642;BME280;32370;41.864;-88.124;2023-02-20T07:31:59;98362.29;;;0.04;84.03
46642;BME280;32370;41.864;-88.124;2023-02-20T07:34:27;98357.42;;;0.15;82.83
46642;BME280;32370;41.864;-88.124;2023-02-20T07:37:01;98356.91;;;0.01;82.01
46642;BME280;32370;41.864;-88.124;2023-02-20T07:39:30;98348.17;;;-0.36;82.75
46642;BME280;32370;41.864;-88.124;2023-02-20T07:42:00;98346.38;;;-0.60;82.91
46642;BME280;32370;41.864;-88.124;2023-02-20T07:44:28;98353.30;;;-0.44;82.67
46642;BME280;32370;41.864;-88.124;2023-02-20T07:47:02;98354.39;;;-0.55;82.80
46642;BME280;32370;41.864;-88.124;2023-02-20T07:49:31;98361.27;;;-0.59;82.22
46642;BME280;32370;41.864;-88.124;2023-02-20T07:51:59;98367.55;;;-0.78;83.35
46642;BME280;32370;41.864;-88.124;2023-02-20T07:54:27;98365.77;;;-0.94;83.67
46642;BME280;32370;41.864;-88.124;2023-02-20T07:56:55;98365.06;;;-1.11;83.50
46642;BME280;32370;41.864;-88.124;2023-02-20T07:59:24;98354.68;;;-0.58;81.97
46642;BME280;32370;41.864;-88.124;2023-02-20T08:01:52;98351.11;;;-0.84;82.32
46642;BME280;32370;41.864;-88.124;2023-02-20T08:04:20;98344.61;;;-1.09;82.58
46642;BME280;32370;41.864;-88.124;2023-02-20T08:06:48;98341.98;;;-0.70;82.27
46642;BME280;32370;41.864;-88.124;2023-02-20T08:09:16;98349.64;;;-0.60;81.27
46642;BME280;32370;41.864;-88.124;2023-02-20T08:11:44;98356.24;;;-0.79;81.38
46642;BME280;32370;41.864;-88.124;2023-02-20T08:14:14;98359.43;;;-0.48;80.46
46642;BME280;32370;41.864;-88.124;2023-02-20T08:16:42;98356.02;;;-0.81;80.86
46642;BME280;32370;41.864;-88.124;2023-02-20T08:19:10;98359.64;;;-0.90;81.07
46642;BME280;32370;41.864;-88.124;2023-02-20T08:21:45;98358.44;;;-0.89;80.96
46642;BME280;32370;41.864;-88.124;2023-02-20T08:24:13;98353.48;;;-1.20;81.61
46642;BME280;32370;41.864;-88.124;2023-02-20T08:26:43;98352.57;;;-0.82;80.82
46642;BME280;32370;41.864;-88.124;2023-02-20T08:29:11;98350.88;;;-1.17;79.86
46642;BME280;32370;41.864;-88.124;2023-02-20T08:31:40;98345.70;;;-0.99;79.57
46642;BME280;32370;41.864;-88.124;2023-02-20T08:34:09;98340.27;;;-1.30;79.53
46642;BME280;32370;41.864;-88.124;2023-02-20T08:36:37;98338.85;;;-1.08;78.64
46642;BME280;32370;41.864;-88.124;2023-02-20T08:39:07;98330.86;;;-1.07;78.17
46642;BME280;32370;41.864;-88.124;2023-02-20T08:41:40;98332.53;;;-0.79;77.17
46642;BME280;32370;41.864;-88.124;2023-02-20T08:44:08;98334.34;;;-1.09;77.45
46642;BME280;32370;41.864;-88.124;2023-02-20T08:46:36;98336.34;;;-0.89;76.83
46642;BME280;32370;41.864;-88.124;2023-02-20T08:49:04;98332.92;;;-0.75;76.30
46642;BME280;32370;41.864;-88.124;2023-02-20T08:51:32;98329.05;;;-1.18;76.76
46642;BME280;32370;41.864;-88.124;2023-02-20T08:54:00;98328.42;;;-1.77;77.04
46642;BME280;32370;41.864;-88.124;2023-02-20T08:56:28;98328.98;;;-1.71;77.07
46642;BME280;32370;41.864;-88.124;2023-02-20T08:58:56;98324.93;;;-1.56;77.63
46642;BME280;32370;41.864;-88.124;2023-02-20T09:01:24;98321.46;;;-1.40;77.15
46642;BME280;32370;41.864;-88.124;2023-02-20T09:03:52;98325.04;;;-1.03;76.76
46642;BME280;32370;41.864;-88.124;2023-02-20T09:06:20;98325.00;;;-1.25;76.49
46642;BME280;32370;41.864;-88.124;2023-02-20T09:08:48;98328.45;;;-1.69;76.31
46642;BME280;32370;41.864;-88.124;2023-02-20T09:11:16;98331.00;;;-1.74;76.82
46642;BME280;32370;41.864;-88.124;2023-02-20T09:13:45;98329.51;;;-1.73;76.65
46642;BME280;32370;41.864;-88.124;2023-02-20T09:16:18;98322.31;;;-2.00;77.21
46642;BME280;32370;41.864;-88.124;2023-02-20T09:18:47;98317.67;;;-2.07;77.24
46642;BME280;32370;41.864;-88.124;2023-02-20T09:21:17;98310.96;;;-2.19;77.56
46642;BME280;32370;41.864;-88.124;2023-02-20T09:23:46;98306.97;;;-1.90;77.11
46642;BME280;32370;41.864;-88.124;2023-02-20T09:26:13;98305.16;;;-1.67;77.02
46642;BME280;32370;41.864;-88.124;2023-02-20T09:28:41;98302.28;;;-1.97;76.55
46642;BME280;32370;41.864;-88.124;2023-02-20T09:31:09;98295.12;;;-2.49;77.10
46642;BME280;32370;41.864;-88.124;2023-02-20T09:33:38;98295.95;;;-2.54;77.69
46642;BME280;32370;41.864;-88.124;2023-02-20T09:36:06;98298.81;;;-2.38;77.96
46642;BME280;32370;41.864;-88.124;2023-02-20T09:38:35;98300.72;;;-2.70;78.82
46642;BME280;32370;41.864;-88.124;2023-02-20T09:41:03;98305.15;;;-2.74;79.12
46642;BME280;32370;41.864;-88.124;2023-02-20T09:43:40;98305.09;;;-2.83;79.07
46642;BME280;32370;41.864;-88.124;2023-02-20T09:46:12;98307.57;;;-2.80;78.89
46642;BME280;32370;41.864;-88.124;2023-02-20T09:48:54;98306.25;;;-2.78;79.02
46642;BME280;32370;41.864;-88.124;2023-02-20T09:51:29;98302.95;;;-2.24;78.97
46642;BME280;32370;41.864;-88.124;2023-02-20T09:54:01;98300.26;;;-2.57;79.07
46642;BME280;32370;41.864;-88.124;2023-02-20T09:56:34;98301.79;;;-2.66;79.80
46642;BME280;32370;41.864;-88.124;2023-02-20T09:59:06;98296.95;;;-2.94;80.78
46642;BME280;32370;41.864;-88.124;2023-02-20T10:01:42;98288.09;;;-3.13;80.24
46642;BME280;32370;41.864;-88.124;2023-02-20T10:04:15;98286.25;;;-3.33;80.47
46642;BME280;32370;41.864;-88.124;2023-02-20T10:06:44;98283.01;;;-3.29;80.27
46642;BME280;32370;41.864;-88.124;2023-02-20T10:09:14;98281.44;;;-3.24;80.14
46642;BME280;32370;41.864;-88.124;2023-02-20T10:11:49;98286.94;;;-2.95;80.11
46642;BME280;32370;41.864;-88.124;2023-02-20T10:14:35;98292.67;;;-3.05;81.82
46642;BME280;32370;41.864;-88.124;2023-02-20T10:17:16;98290.96;;;-3.18;81.34
46642;BME280;32370;41.864;-88.124;2023-02-20T10:19:51;98295.64;;;-3.21;81.31
46642;BME280;32370;41.864;-88.124;2023-02-20T10:22:22;98299.23;;;-2.93;81.32
46642;BME280;32370;41.864;-88.124;2023-02-20T10:25:01;98301.97;;;-3.19;81.94
46642;BME280;32370;41.864;-88.124;2023-02-20T10:27:41;98302.74;;;-3.17;81.85
46642;BME280;32370;41.864;-88.124;2023-02-20T10:30:19;98305.11;;;-3.51;82.14
46642;BME280;32370;41.864;-88.124;2023-02-20T10:32:53;98312.64;;;-3.44;83.04
46642;BME280;32370;41.864;-88.124;2023-02-20T10:35:25;98322.16;;;-3.60;83.31
46642;BME280;32370;41.864;-88.124;2023-02-20T10:37:58;98329.67;;;-3.70;83.52
46642;BME280;32370;41.864;-88.124;2023-02-20T10:40:33;98338.75;;;-3.68;84.11
46642;BME280;32370;41.864;-88.124;2023-02-20T10:43:08;98342.49;;;-4.55;87.09
46642;BME280;32370;41.864;-88.124;2023-02-20T10:45:45;98343.34;;;-4.64;89.00
46642;BME280;32370;41.864;-88.124;2023-02-20T10:48:15;98344.68;;;-4.34;89.87
46642;BME280;32370;41.864;-88.124;2023-02-20T10:50:47;98341.57;;;-4.70;90.40
46642;BME280;32370;41.864;-88.124;2023-02-20T10:53:24;98341.65;;;-4.27;89.78
46642;BME280;32370;41.864;-88.124;2023-02-20T10:56:00;98338.62;;;-4.09;88.94
46642;BME280;32370;41.864;-88.124;2023-02-20T10:58:32;98345.97;;;-3.42;87.13
46642;BME280;32370;41.864;-88.124;2023-02-20T11:01:07;98351.88;;;-4.03;88.01
46642;BME280;32370;41.864;-88.124;2023-02-20T11:03:42;98357.05;;;-4.08;88.69
46642;BME280;32370;41.864;-88.124;2023-02-20T11:06:15;98346.29;;;-3.95;88.29
46642;BME280;32370;41.864;-88.124;2023-02-20T11:08:44;98343.71;;;-3.68;87.53
46642;BME280;32370;41.864;-88.124;2023-02-20T11:11:42;98346.81;;;-3.56;87.16
46642;BME280;32370;41.864;-88.124;2023-02-20T11:14:14;98332.44;;;-2.96;85.74
46642;BME280;32370;41.864;-88.124;2023-02-20T11:16:48;98332.09;;;-2.85;84.71
46642;BME280;32370;41.864;-88.124;2023-02-20T11:19:22;98344.75;;;-2.89;84.63
46642;BME280;32370;41.864;-88.124;2023-02-20T11:21:51;98349.33;;;-3.18;85.21
46642;BME280;32370;41.864;-88.124;2023-02-20T11:24:27;98351.44;;;-3.73;86.17
46642;BME280;32370;41.864;-88.124;2023-02-20T11:27:13;98345.09;;;-3.71;86.28
46642;BME280;32370;41.864;-88.124;2023-02-20T11:29:46;98341.51;;;-3.59;85.92
46642;BME280;32370;41.864;-88.124;2023-02-20T11:32:34;98348.31;;;-3.49;86.30
46642;BME280;32370;41.864;-88.124;2023-02-20T11:35:37;98331.47;;;-2.19;84.96
46642;BME280;32370;41.864;-88.124;2023-02-20T11:38:36;98322.99;;;-2.47;82.89
46642;BME280;32370;41.864;-88.124;2023-02-20T11:41:12;98304.25;;;-2.49;81.98
46642;BME280;32370;41.864;-88.124;2023-02-20T11:43:46;98293.81;;;-3.11;83.58
46642;BME280;32370;41.864;-88.124;2023-02-20T11:46:15;98293.70;;;-3.39;84.46
46642;BME280;32370;41.864;-88.124;2023-02-20T11:48:59;98301.90;;;-3.63;84.93
46642;BME280;32370;41.864;-88.124;2023-02-20T11:51:33;98301.81;;;-3.41;84.46
46642;BME280;32370;41.864;-88.124;2023-02-20T11:54:13;98296.63;;;-3.40;84.31
46642;BME280;32370;41.864;-88.124;2023-02-20T11:57:01;98299.48;;;-3.89;85.94
46642;BME280;32370;41.864;-88.124;2023-02-20T11:59:33;98301.01;;;-4.31;87.93
46642;BME280;32370;41.864;-88.124;2023-02-20T12:02:22;98303.84;;;-4.52;88.96
46642;BME280;32370;41.864;-88.124;2023-02-20T12:05:10;98320.92;;;-3.87;87.47
46642;BME280;32370;41.864;-88.124;2023-02-20T12:07:41;98325.48;;;-3.44;85.80
46642;BME280;32370;41.864;-88.124;2023-02-20T12:10:26;98322.60;;;-3.16;84.40
46642;BME280;32370;41.864;-88.124;2023-02-20T12:12:55;98319.36;;;-3.95;87.16
46642;BME280;32370;41.864;-88.124;2023-02-20T12:15:25;98316.19;;;-3.63;86.59
46642;BME280;32370;41.864;-88.124;2023-02-20T12:18:22;98318.70;;;-3.97;87.98
46642;BME280;32370;41.864;-88.124;2023-02-20T12:21:05;98318.48;;;-4.24;89.00
46642;BME280;32370;41.864;-88.124;2023-02-20T12:23:42;98319.43;;;-4.04;88.65
46642;BME280;32370;41.864;-88.124;2023-02-20T12:26:26;98319.36;;;-3.79;88.07
46642;BME280;32370;41.864;-88.124;2023-02-20T12:29:07;98315.59;;;-3.62;86.87
46642;BME280;32370;41.864;-88.124;2023-02-20T12:31:50;98312.89;;;-3.55;86.42
46642;BME280;32370;41.864;-88.124;2023-02-20T12:34:33;98306.52;;;-3.79;86.14
46642;BME280;32370;41.864;-88.124;2023-02-20T12:37:12;98304.17;;;-3.73;85.82
46642;BME280;32370;41.864;-88.124;2023-02-20T12:39:52;98309.93;;;-4.25;87.75
46642;BME280;32370;41.864;-88.124;2023-02-20T12:42:28;98310.99;;;-3.70;86.93
46642;BME280;32370;41.864;-88.124;2023-02-20T12:45:10;98310.74;;;-4.03;86.94
46642;BME280;32370;41.864;-88.124;2023-02-20T12:47:43;98317.09;;;-4.08;86.73
46642;BME280;32370;41.864;-88.124;2023-02-20T12:51:16;98315.38;;;-4.15;86.62
46642;BME280;32370;41.864;-88.124;2023-02-20T12:53:59;98321.59;;;-4.19;87.74
46642;BME280;32370;41.864;-88.124;2023-02-20T12:56:39;98321.76;;;-4.28;88.48
46642;BME280;32370;41.864;-88.124;2023-02-20T12:59:23;98329.41;;;-4.16;88.52
46642;BME280;32370;41.864;-88.124;2023-02-20T13:01:53;98327.11;;;-3.89;87.94
46642;BME280;32370;41.864;-88.124;2023-02-20T13:04:28;98323.07;;;-3.24;86.22
46642;BME280;32370;41.864;-88.124;2023-02-20T13:07:03;98313.44;;;-3.38;86.24
46642;BME280;32370;41.864;-88.124;2023-02-20T13:09:35;98313.33;;;-3.18;85.59
46642;BME280;32370;41.864;-88.124;2023-02-20T13:12:10;98312.77;;;-3.15;85.67
46642;BME280;32370;41.864;-88.124;2023-02-20T13:14:52;98321.43;;;-3.41;86.27